createdAt,value
2023-02-22T00:01:35.244Z,0.00
2023-02-22T00:04:07.292Z,1.00
2023-02-22T00:06:39.229Z,1.00
2023-02-22T00:09:10.853Z,0.50
2023-02-22T00:14:24.350Z,0.75
2023-02-22T00:16:55.365Z,1.00
2023-02-22T00:19:25.782Z,1.00
2023-02-22T00:21:55.973Z,0.00
2023-02-22T00:24:26.373Z,2.00
2023-02-22T00:26:57.218Z,1.00
2023-02-22T00:29:28.295Z,0.50
2023-02-22T00:32:00.046Z,1.00
2023-02-22T00:34:31.439Z,1.00
2023-02-22T00:37:01.731Z,0.00
2023-02-22T00:39:32.253Z,1.00
2023-02-22T00:42:03.231Z,1.00
2023-02-22T00:44:35.312Z,0.50
2023-02-22T00:47:05.901Z,1.00
2023-02-22T00:49:37.067Z,1.00
2023-02-22T00:52:08.085Z,0.00
2023-02-22T00:54:38.435Z,1.00
2023-02-22T00:57:09.090Z,0.00
2023-02-22T00:59:41.001Z,1.00
2023-02-22T01:02:11.527Z,1.75
2023-02-22T01:04:45.095Z,1.25
2023-02-22T01:07:15.988Z,1.75
2023-02-22T01:09:46.381Z,1.00
2023-02-22T01:12:17.374Z,1.00
2023-02-22T01:14:47.717Z,1.75
2023-02-22T01:17:18.082Z,3.00
2023-02-22T01:19:48.725Z,4.00
2023-02-22T01:22:20.499Z,2.00
2023-02-22T01:24:52.258Z,1.00
2023-02-22T01:27:22.675Z,1.00
2023-02-22T01:29:53.214Z,3.25
2023-02-22T01:32:25.042Z,1.00
2023-02-22T01:34:55.704Z,1.50
2023-02-22T01:37:26.009Z,2.00
2023-02-22T01:39:57.770Z,1.00
2023-02-22T01:42:48.719Z,1.50
2023-02-22T01:45:43.453Z,2.00
2023-02-22T01:48:30.100Z,3.50
2023-02-22T01:51:23.850Z,0.00
2023-02-22T01:54:19.032Z,2.50
2023-02-22T01:56:52.506Z,2.00
2023-02-22T01:59:24.235Z,2.50
2023-02-22T02:01:56.874Z,1.50
2023-02-22T02:04:28.646Z,2.50
2023-02-22T02:07:02.460Z,1.25
2023-02-22T02:09:38.721Z,1.25
2023-02-22T02:12:12.425Z,1.00
2023-02-22T02:14:43.764Z,1.00
2023-02-22T02:17:17.289Z,0.75
2023-02-22T02:20:14.283Z,1.50
2023-02-22T02:22:54.326Z,4.00
2023-02-22T02:29:06.414Z,3.00
2023-02-22T02:34:53.128Z,2.00
2023-02-22T02:37:46.709Z,1.00
2023-02-22T02:40:22.858Z,2.00
2023-02-22T02:43:02.359Z,1.50
2023-02-22T02:46:06.259Z,3.25
2023-02-22T02:48:40.008Z,1.75
2023-02-22T02:51:13.490Z,1.75
2023-02-22T02:53:46.895Z,1.25
2023-02-22T02:56:20.047Z,1.00
2023-02-22T02:58:53.242Z,2.50
2023-02-22T03:01:55.519Z,1.50
2023-02-22T03:04:57.788Z,1.00
2023-02-22T03:07:46.429Z,1.50
2023-02-22T03:10:40.667Z,1.00
2023-02-22T03:13:25.732Z,1.25
2023-02-22T03:16:00.184Z,1.00
2023-02-22T03:18:52.437Z,2.00
2023-02-22T03:21:34.991Z,1.00
2023-02-22T03:24:09.894Z,1.00
2023-02-22T03:26:44.053Z,3.00
2023-02-22T03:29:17.859Z,2.25
2023-02-22T03:31:57.447Z,3.50
2023-02-22T03:34:33.675Z,2.50
2023-02-22T03:37:07.480Z,5.00
2023-02-22T03:39:40.215Z,4.25
2023-02-22T03:42:13.639Z,3.00
2023-02-22T03:44:46.577Z,5.00
2023-02-22T03:47:23.310Z,8.00
2023-02-22T03:49:59.446Z,4.25
2023-02-22T03:52:30.453Z,4.25
2023-02-22T03:55:01.233Z,8.50
2023-02-22T03:57:38.248Z,5.25
2023-02-22T04:00:11.477Z,6.00
2023-02-22T04:02:42.410Z,2.00
2023-02-22T04:05:12.728Z,1.75
2023-02-22T04:07:43.485Z,0.00
2023-02-22T04:10:15.654Z,1.00
2023-02-22T04:12:46.264Z,4.00
2023-02-22T04:15:19.539Z,4.00
2023-02-22T04:17:49.971Z,4.25
2023-02-22T04:20:20.807Z,5.50
2023-02-22T04:22:55.491Z,4.00
2023-02-22T04:25:26.091Z,4.00
2023-02-22T04:27:56.484Z,4.50
2023-02-22T04:30:27.033Z,4.00
2023-02-22T04:32:57.702Z,1.00
2023-02-22T04:35:28.002Z,4.75
2023-02-22T04:37:58.999Z,5.00
2023-02-22T04:40:29.420Z,4.00
2023-02-22T04:43:02.905Z,4.75
2023-02-22T04:45:33.408Z,5.00
2023-02-22T04:48:03.859Z,5.00
2023-02-22T04:50:34.330Z,4.50
2023-02-22T04:53:05.147Z,5.50
2023-02-22T04:55:35.801Z,7.00
2023-02-22T04:58:08.124Z,6.00
2023-02-22T05:00:38.837Z,4.25
2023-02-22T05:03:11.661Z,6.00
2023-02-22T05:05:41.860Z,4.00
2023-02-22T05:08:12.281Z,4.25
2023-02-22T05:10:43.211Z,4.25
2023-02-22T05:13:13.788Z,8.25
2023-02-22T05:15:44.213Z,8.00
2023-02-22T05:18:16.365Z,8.25
2023-02-22T05:20:46.943Z,6.00
2023-02-22T05:23:21.224Z,8.25
2023-02-22T05:25:51.374Z,5.75
2023-02-22T05:28:22.961Z,5.00
2023-02-22T05:30:53.584Z,5.75
2023-02-22T05:33:24.191Z,7.00
2023-02-22T05:35:54.669Z,8.75
2023-02-22T05:38:25.106Z,8.50
2023-02-22T05:40:56.341Z,9.25
2023-02-22T05:43:27.345Z,5.25
2023-02-22T05:45:58.062Z,6.50
2023-02-22T05:48:29.234Z,9.75
2023-02-22T05:50:59.634Z,10.00
2023-02-22T05:53:30.650Z,9.00
2023-02-22T05:56:01.867Z,10.00
2023-02-22T05:58:32.497Z,7.25
2023-02-22T06:01:03.492Z,11.00
2023-02-22T06:03:34.659Z,9.25
2023-02-22T06:06:05.031Z,10.50
2023-02-22T06:08:35.603Z,10.00
2023-02-22T06:11:06.256Z,12.25
2023-02-22T06:13:37.456Z,10.00
2023-02-22T06:16:08.231Z,11.00
2023-02-22T06:18:38.742Z,9.50
2023-02-22T06:21:09.439Z,13.50
2023-02-22T06:23:40.090Z,14.75
2023-02-22T06:26:10.395Z,13.00
2023-02-22T06:28:52.698Z,12.25
2023-02-22T06:31:24.811Z,14.00
2023-02-22T06:33:56.913Z,13.50
2023-02-22T06:36:27.915Z,12.75
2023-02-22T06:38:58.975Z,14.00
2023-02-22T06:41:29.206Z,8.25
2023-02-22T06:43:59.628Z,11.25
2023-02-22T06:46:30.210Z,12.00
2023-02-22T06:49:00.790Z,9.00
2023-02-22T06:51:34.084Z,12.00
2023-02-22T06:54:05.948Z,10.50
2023-02-22T06:56:37.476Z,10.00
2023-02-22T06:59:08.902Z,6.50
2023-02-22T07:01:43.956Z,8.75
2023-02-22T07:04:14.232Z,5.75
2023-02-22T07:06:50.519Z,9.25
2023-02-22T07:09:22.621Z,4.75
2023-02-22T07:11:53.547Z,4.00
2023-02-22T07:14:25.051Z,6.50
2023-02-22T07:16:56.937Z,9.50
2023-02-22T07:19:31.632Z,6.75
2023-02-22T07:22:03.761Z,5.75
2023-02-22T07:24:34.186Z,4.50
2023-02-22T07:27:10.821Z,5.00
2023-02-22T07:29:52.622Z,3.25
2023-02-22T07:32:28.818Z,7.25
2023-02-22T07:35:01.773Z,3.25
2023-02-22T07:37:32.460Z,3.25
2023-02-22T07:40:02.949Z,3.25
2023-02-22T07:42:55.706Z,5.75
2023-02-22T07:45:30.507Z,5.00
2023-02-22T07:48:08.256Z,3.25
2023-02-22T07:50:42.081Z,1.00
2023-02-22T07:53:31.042Z,3.75
2023-02-22T07:56:05.642Z,3.75
2023-02-22T07:58:39.250Z,3.25
2023-02-22T08:01:10.500Z,2.00
2023-02-22T08:03:41.512Z,4.00
2023-02-22T08:06:12.037Z,5.00
2023-02-22T08:08:45.851Z,5.00
2023-02-22T08:11:16.618Z,4.25
2023-02-22T08:13:57.714Z,5.00
2023-02-22T08:16:29.535Z,2.00
2023-02-22T08:19:01.619Z,3.25
2023-02-22T08:21:34.531Z,4.00
2023-02-22T08:24:08.265Z,4.00
2023-02-22T08:26:47.800Z,2.50
2023-02-22T08:29:31.333Z,5.00
2023-02-22T08:32:02.455Z,5.25
2023-02-22T08:34:36.611Z,5.25
2023-02-22T08:37:08.967Z,5.25
2023-02-22T08:39:39.056Z,6.00
2023-02-22T08:42:18.719Z,5.25
2023-02-22T08:44:51.916Z,5.75
2023-02-22T08:47:22.733Z,4.50
2023-02-22T08:49:53.754Z,3.75
2023-02-22T08:52:29.510Z,4.50
2023-02-22T08:55:07.416Z,3.25
2023-02-22T08:57:46.493Z,4.50
2023-02-22T09:00:15.011Z,5.00
2023-02-22T09:02:51.167Z,4.00
2023-02-22T09:05:24.619Z,4.00
2023-02-22T09:07:55.947Z,4.25
2023-02-22T09:10:29.676Z,4.50
2023-02-22T09:13:02.560Z,5.00
2023-02-22T09:15:54.822Z,4.00
2023-02-22T09:18:39.052Z,4.50
2023-02-22T09:21:00.846Z,4.00
2023-02-22T09:23:33.377Z,4.75
2023-02-22T09:26:03.827Z,3.00
2023-02-22T09:28:34.757Z,4.50
2023-02-22T09:31:12.260Z,3.75
2023-02-22T09:33:47.620Z,3.00
2023-02-22T09:36:19.799Z,2.50
2023-02-22T09:38:57.896Z,4.50
2023-02-22T09:41:36.269Z,7.50
2023-02-22T09:44:13.129Z,6.75
2023-02-22T09:46:45.733Z,7.50
2023-02-22T09:49:27.632Z,6.75
2023-02-22T09:52:13.163Z,7.00
2023-02-22T09:54:52.442Z,6.00
2023-02-22T09:57:25.788Z,9.50
2023-02-22T10:00:22.335Z,6.00
2023-02-22T10:03:16.368Z,10.00
2023-02-22T10:05:57.984Z,6.00
2023-02-22T10:08:32.944Z,8.00
2023-02-22T10:11:34.281Z,5.75
2023-02-22T10:14:10.332Z,4.00
2023-02-22T10:16:49.940Z,4.00
2023-02-22T10:19:52.296Z,6.00
2023-02-22T10:23:01.306Z,8.00
2023-02-22T10:25:42.537Z,6.50
2023-02-22T10:28:34.162Z,8.25
2023-02-22T10:31:08.891Z,9.00
2023-02-22T10:33:52.054Z,4.00
2023-02-22T10:36:26.579Z,6.50
2023-02-22T10:39:03.364Z,5.00
2023-02-22T10:41:37.175Z,8.00
2023-02-22T10:44:09.731Z,8.50
2023-02-22T10:46:42.247Z,5.00
2023-02-22T10:49:15.542Z,6.25
2023-02-22T10:52:01.803Z,9.50
2023-02-22T10:55:14.041Z,7.50
2023-02-22T10:57:38.358Z,8.00
2023-02-22T11:00:20.320Z,8.00
2023-02-22T11:03:04.093Z,8.50
2023-02-22T11:05:39.782Z,6.00
2023-02-22T11:11:26.118Z,10.25
2023-02-22T11:13:57.298Z,11.50
2023-02-22T11:16:39.397Z,11.50
2023-02-22T11:19:31.341Z,13.75
2023-02-22T11:22:07.456Z,13.75
2023-02-22T11:24:50.079Z,5.50
2023-02-22T11:27:39.399Z,8.50
2023-02-22T11:30:12.711Z,7.75
2023-02-22T11:33:07.831Z,7.75
2023-02-22T11:35:57.250Z,9.25
2023-02-22T11:38:32.954Z,11.25
2023-02-22T11:41:22.294Z,9.25
2023-02-22T11:44:15.094Z,9.75
2023-02-22T11:46:45.472Z,12.50
2023-02-22T11:49:17.628Z,12.75
2023-02-22T11:52:01.959Z,13.25
2023-02-22T11:54:54.870Z,14.50
2023-02-22T11:57:42.851Z,16.75
2023-02-22T12:00:25.469Z,12.75
2023-02-22T12:03:04.842Z,20.50
2023-02-22T12:05:56.855Z,9.25
2023-02-22T12:08:49.187Z,7.50
2023-02-22T12:11:48.274Z,9.00
2023-02-22T12:14:30.177Z,13.00
2023-02-22T12:17:32.635Z,13.00
2023-02-22T12:23:32.436Z,11.00
2023-02-22T12:26:11.873Z,29.00
2023-02-22T12:28:45.921Z,14.75
2023-02-22T12:31:30.866Z,6.50
2023-02-22T12:34:10.244Z,9.00
2023-02-22T12:36:46.242Z,11.25
2023-02-22T12:39:53.592Z,13.25
2023-02-22T12:42:26.382Z,15.50
2023-02-22T12:45:03.319Z,21.50
2023-02-22T12:47:38.730Z,11.00
2023-02-22T12:50:16.044Z,7.50
2023-02-22T12:52:49.392Z,7.75
2023-02-22T12:55:35.318Z,8.00
2023-02-22T12:58:22.163Z,7.75
2023-02-22T13:00:58.590Z,6.00
2023-02-22T13:03:34.877Z,6.00
2023-02-22T13:06:44.176Z,9.75
2023-02-22T13:09:44.911Z,12.50
2023-02-22T13:12:23.008Z,16.00
2023-02-22T13:15:19.163Z,16.50
2023-02-22T13:18:07.568Z,15.75
2023-02-22T13:21:16.385Z,16.50
2023-02-22T13:23:52.666Z,16.75
2023-02-22T13:26:26.057Z,14.75
2023-02-22T13:29:00.605Z,12.00
2023-02-22T13:31:49.587Z,18.00
2023-02-22T13:34:38.495Z,15.50
2023-02-22T13:38:04.768Z,13.00
2023-02-22T13:40:54.530Z,12.50
2023-02-22T13:43:55.115Z,14.25
2023-02-22T13:49:54.349Z,11.00
2023-02-22T13:52:29.749Z,16.25
2023-02-22T13:55:03.649Z,15.75
2023-02-22T13:57:44.111Z,19.00
2023-02-22T14:00:20.151Z,18.50
2023-02-22T14:03:14.726Z,16.50
2023-02-22T14:06:14.113Z,17.25
2023-02-22T14:08:50.639Z,12.50
2023-02-22T14:11:23.968Z,14.75
2023-02-22T14:13:58.072Z,15.75
2023-02-22T14:16:30.923Z,19.50
2023-02-22T14:19:16.948Z,15.75
2023-02-22T14:22:19.282Z,21.25
2023-02-22T14:25:03.909Z,19.25
2023-02-22T14:27:59.906Z,15.50
2023-02-22T14:30:29.810Z,18.25
2023-02-22T14:33:01.288Z,20.75
2023-02-22T14:35:58.893Z,15.25
2023-02-22T14:38:29.793Z,15.00
2023-02-22T14:41:03.410Z,15.00
2023-02-22T14:43:36.846Z,10.25
2023-02-22T14:46:12.428Z,16.25
2023-02-22T14:48:44.095Z,12.75
2023-02-22T14:51:30.029Z,11.75
2023-02-22T14:54:08.904Z,12.00
2023-02-22T14:56:48.278Z,9.00
2023-02-22T14:59:24.356Z,5.25
2023-02-22T15:02:14.143Z,9.00
2023-02-22T15:04:54.959Z,9.00
2023-02-22T15:07:32.653Z,1.00
2023-02-22T15:10:20.779Z,8.75
2023-02-22T15:13:06.374Z,7.00
2023-02-22T15:15:49.833Z,8.50
2023-02-22T15:18:21.464Z,8.50
2023-02-22T15:21:13.483Z,5.00
2023-02-22T15:24:14.129Z,8.00
2023-02-22T15:27:00.634Z,9.00
2023-02-22T15:29:44.710Z,8.50
2023-02-22T15:35:48.309Z,9.25
2023-02-22T15:38:24.993Z,6.25
2023-02-22T15:41:11.304Z,9.00
2023-02-22T15:43:39.315Z,8.75
2023-02-22T15:46:12.844Z,10.00
2023-02-22T15:48:49.979Z,9.00
2023-02-22T15:51:26.981Z,8.00
2023-02-22T15:54:00.365Z,8.75
2023-02-22T15:56:34.601Z,8.00
2023-02-22T15:59:11.702Z,9.00
2023-02-22T16:01:45.397Z,11.00
2023-02-22T16:04:21.595Z,11.75
2023-02-22T16:06:56.099Z,8.50
2023-02-22T16:09:28.528Z,7.75
2023-02-22T16:12:11.826Z,10.50
2023-02-22T16:14:43.145Z,8.00
2023-02-22T16:17:49.336Z,11.50
2023-02-22T16:20:15.999Z,7.00
2023-02-22T16:22:48.651Z,9.25
2023-02-22T16:25:27.166Z,13.75
2023-02-22T16:28:03.728Z,10.25
2023-02-22T16:30:42.903Z,7.00
2023-02-22T16:33:14.335Z,7.00
2023-02-22T16:35:47.416Z,10.00
2023-02-22T16:38:20.761Z,9.50
2023-02-22T16:40:57.051Z,3.50
2023-02-22T16:46:32.788Z,7.00
2023-02-22T16:49:06.692Z,10.25
2023-02-22T16:51:45.954Z,11.25
2023-02-22T16:54:23.462Z,4.00
2023-02-22T16:56:58.584Z,10.50
2023-02-22T16:59:35.864Z,6.50
2023-02-22T17:02:09.670Z,4.00
2023-02-22T17:04:42.783Z,9.50
2023-02-22T17:07:13.579Z,4.00
2023-02-22T17:09:45.688Z,10.00
2023-02-22T17:12:20.871Z,7.00
2023-02-22T17:14:55.458Z,8.00
2023-02-22T17:17:33.689Z,4.75
2023-02-22T17:20:11.465Z,9.75
2023-02-22T17:22:47.915Z,9.50
2023-02-22T17:25:26.488Z,7.75
2023-02-22T17:28:01.139Z,9.75
2023-02-22T17:30:38.606Z,9.00
2023-02-22T17:33:11.284Z,9.50
2023-02-22T17:35:46.596Z,7.25
2023-02-22T17:38:22.632Z,9.25
2023-02-22T17:40:57.548Z,10.25
2023-02-22T17:43:35.543Z,13.50
2023-02-22T17:46:25.264Z,6.00
2023-02-22T17:49:00.156Z,8.00
2023-02-22T17:51:31.015Z,8.00
2023-02-22T17:54:03.909Z,11.00
2023-02-22T17:56:34.552Z,8.00
2023-02-22T17:59:05.257Z,7.00
2023-02-22T18:01:44.058Z,7.00
2023-02-22T18:04:17.640Z,10.25
2023-02-22T18:06:53.932Z,11.00
2023-02-22T18:09:42.606Z,11.00
2023-02-22T18:12:29.874Z,14.00
2023-02-22T18:15:07.849Z,13.50
2023-02-22T18:17:39.192Z,13.00
2023-02-22T18:20:13.165Z,11.00
2023-02-22T18:22:44.498Z,11.50
2023-02-22T18:25:15.813Z,13.75
2023-02-22T18:27:53.781Z,13.00
2023-02-22T18:30:23.280Z,10.00
2023-02-22T18:32:53.858Z,11.75
2023-02-22T18:35:24.628Z,10.00
2023-02-22T18:37:55.304Z,10.75
2023-02-22T18:40:26.058Z,11.00
2023-02-22T18:42:56.674Z,13.50
2023-02-22T18:45:38.519Z,9.25
2023-02-22T18:48:16.474Z,13.25
2023-02-22T18:50:48.290Z,14.00
2023-02-22T18:53:24.270Z,11.25
2023-02-22T18:55:57.354Z,9.25
2023-02-22T18:58:28.168Z,15.50
2023-02-22T19:01:00.006Z,12.00
2023-02-22T19:03:31.437Z,13.25
2023-02-22T19:06:09.463Z,15.50
2023-02-22T19:08:43.887Z,13.00
2023-02-22T19:11:18.774Z,11.50
2023-02-22T19:13:52.441Z,13.00
2023-02-22T19:16:30.111Z,12.50
2023-02-22T19:19:03.816Z,13.00
2023-02-22T19:21:34.579Z,14.50
2023-02-22T19:24:07.186Z,10.50
2023-02-22T19:26:45.337Z,11.25
2023-02-22T19:29:19.246Z,13.00
2023-02-22T19:31:57.151Z,11.25
2023-02-22T19:34:36.829Z,8.25
2023-02-22T19:37:20.907Z,13.00
2023-02-22T19:39:52.934Z,12.50
2023-02-22T19:42:28.863Z,10.75
2023-02-22T19:45:24.845Z,12.50
2023-02-22T19:47:56.413Z,12.00
2023-02-22T19:50:30.239Z,15.25
2023-02-22T19:53:07.682Z,13.00
2023-02-22T19:55:43.976Z,13.75
2023-02-22T19:58:14.101Z,8.25
2023-02-22T20:00:47.005Z,17.75
2023-02-22T20:03:17.961Z,19.75
2023-02-22T20:05:56.541Z,16.25
2023-02-22T20:08:36.529Z,15.25
2023-02-22T20:11:10.869Z,17.00
2023-02-22T20:13:46.742Z,19.75
2023-02-22T20:16:17.801Z,21.75
2023-02-22T20:18:52.101Z,18.00
2023-02-22T20:21:31.447Z,16.50
2023-02-22T20:24:44.388Z,18.75
2023-02-22T20:33:32.701Z,20.00
2023-02-22T20:36:06.884Z,16.50
2023-02-22T20:39:28.613Z,17.50
2023-02-22T20:41:51.896Z,18.00
2023-02-22T20:44:29.772Z,18.25
2023-02-22T20:47:03.419Z,20.25
2023-02-22T20:52:26.829Z,16.50
2023-02-22T20:55:13.921Z,11.25
2023-02-22T20:58:02.232Z,16.00
2023-02-22T21:00:15.148Z,17.25
2023-02-22T21:03:24.261Z,18.75
2023-02-22T21:05:55.646Z,16.00
2023-02-22T21:08:55.330Z,17.75
2023-02-22T21:11:35.137Z,14.25
2023-02-22T21:14:08.427Z,23.00
2023-02-22T21:16:41.662Z,19.50
2023-02-22T21:19:21.586Z,17.75
2023-02-22T21:22:03.353Z,18.75
2023-02-22T21:24:43.345Z,18.50
2023-02-22T21:27:19.532Z,17.50
2023-02-22T21:29:56.180Z,20.50
2023-02-22T21:32:28.417Z,12.25
2023-02-22T21:35:03.039Z,16.00
2023-02-22T21:37:35.223Z,17.50
2023-02-22T21:40:12.346Z,14.00
2023-02-22T21:42:44.221Z,14.75
2023-02-22T21:45:20.508Z,14.00
2023-02-22T21:47:51.747Z,15.00
2023-02-22T21:50:30.058Z,4.00
2023-02-22T21:53:01.989Z,10.50
2023-02-22T21:55:34.724Z,12.25
2023-02-22T21:58:06.853Z,9.75
2023-02-22T22:00:38.180Z,12.50
2023-02-22T22:03:10.489Z,10.50
2023-02-22T22:05:41.891Z,12.00
2023-02-22T22:08:17.090Z,13.50
2023-02-22T22:10:55.476Z,11.00
2023-02-22T22:13:31.555Z,9.75
2023-02-22T22:16:10.516Z,13.00
2023-02-22T22:18:39.882Z,9.25
2023-02-22T22:21:20.548Z,9.75
2023-02-22T22:23:56.978Z,8.50
2023-02-22T22:26:28.212Z,12.75
2023-02-22T22:29:02.334Z,13.00
2023-02-22T22:31:33.945Z,11.25
2023-02-22T22:34:07.997Z,12.75
2023-02-22T22:36:46.925Z,8.50
2023-02-22T22:39:18.000Z,10.50
2023-02-22T22:41:50.810Z,10.00
2023-02-22T22:44:21.879Z,8.00
2023-02-22T22:46:59.989Z,15.00
2023-02-22T22:49:31.483Z,8.00
2023-02-22T22:52:03.596Z,10.00
2023-02-22T22:54:38.074Z,12.00
2023-02-22T23:00:00.730Z,10.00
2023-02-22T23:02:50.284Z,10.00
2023-02-22T23:05:13.768Z,9.50
2023-02-22T23:07:44.781Z,12.00
2023-02-22T23:10:22.939Z,12.75
2023-02-22T23:12:56.744Z,9.75
2023-02-22T23:15:29.203Z,13.00
2023-02-22T23:17:59.993Z,12.00
2023-02-22T23:20:36.831Z,12.25
2023-02-22T23:23:08.948Z,13.25
2023-02-22T23:25:41.688Z,12.25
2023-02-22T23:28:12.417Z,14.50
2023-02-22T23:30:44.083Z,13.00
2023-02-22T23:33:15.623Z,15.00
2023-02-22T23:35:50.255Z,15.00
2023-02-22T23:41:42.188Z,14.00
2023-02-22T23:44:13.256Z,9.75
2023-02-22T23:46:45.736Z,14.50
2023-02-22T23:49:17.674Z,12.75
2023-02-22T23:51:48.989Z,9.25
2023-02-22T23:54:21.373Z,13.00
2023-02-22T23:56:52.186Z,15.50
2023-02-22T23:59:23.615Z,12.50
